createdAt,value
2022-08-20T00:01:18.977Z,99684.84
2022-08-20T00:03:53.216Z,99691.02
2022-08-20T00:06:23.092Z,99683.08
2022-08-20T00:08:50.998Z,99671.69
2022-08-20T00:11:24.086Z,99666.98
2022-08-20T00:13:56.324Z,99667.48
2022-08-20T00:16:25.744Z,99666.45
2022-08-20T00:18:54.336Z,99666.83
2022-08-20T00:21:23.314Z,99669.48
2022-08-20T00:23:55.143Z,99662.91
2022-08-20T00:26:23.854Z,99656.73
2022-08-20T00:28:52.663Z,99654.76
2022-08-20T00:31:21.614Z,99645.02
2022-08-20T00:33:50.146Z,99644.71
2022-08-20T00:36:18.802Z,99645.37
2022-08-20T00:38:47.610Z,99645.56
2022-08-20T00:41:19.200Z,99644.20
2022-08-20T00:43:46.902Z,99634.58
2022-08-20T00:46:18.634Z,99635.84
2022-08-20T00:48:48.876Z,99637.74
2022-08-20T00:51:32.584Z,99639.34
2022-08-20T00:54:07.111Z,99642.11
2022-08-20T00:56:35.505Z,99634.48
2022-08-20T00:59:05.486Z,99628.96
2022-08-20T01:01:40.654Z,99627.69
2022-08-20T01:04:25.384Z,99629.10
2022-08-20T01:06:53.792Z,99626.79
2022-08-20T01:09:49.628Z,99620.67
2022-08-20T01:12:10.006Z,99621.52
2022-08-20T01:14:37.886Z,99614.80
2022-08-20T01:17:07.799Z,99607.91
2022-08-20T01:19:38.840Z,99601.91
2022-08-20T01:22:27.482Z,99602.09
2022-08-20T01:25:02.120Z,99596.77
2022-08-20T01:27:30.935Z,99592.48
2022-08-20T01:30:06.209Z,99588.86
2022-08-20T01:32:36.093Z,99589.39
2022-08-20T01:35:04.842Z,99593.09
2022-08-20T01:37:32.999Z,99598.90
2022-08-20T01:40:02.212Z,99599.16
2022-08-20T01:42:52.830Z,99596.17
2022-08-20T01:45:30.357Z,99596.37
2022-08-20T01:47:59.321Z,99594.27
2022-08-20T01:50:28.980Z,99592.48
2022-08-20T01:53:00.315Z,99584.48
2022-08-20T01:55:28.743Z,99575.95
2022-08-20T01:57:57.950Z,99573.02
2022-08-20T02:00:26.979Z,99570.04
2022-08-20T02:02:54.990Z,99571.69
2022-08-20T02:05:24.540Z,99573.25
2022-08-20T02:07:58.272Z,99573.70
2022-08-20T02:10:26.490Z,99577.90
2022-08-20T02:12:54.615Z,99581.81
2022-08-20T02:15:34.954Z,99577.23
2022-08-20T02:18:10.504Z,99571.70
2022-08-20T02:20:39.292Z,99566.79
2022-08-20T02:23:08.491Z,99567.31
2022-08-20T02:25:38.033Z,99570.42
2022-08-20T02:28:08.174Z,99568.61
2022-08-20T02:30:38.856Z,99561.56
2022-08-20T02:33:09.350Z,99555.48
2022-08-20T02:35:38.381Z,99556.59
2022-08-20T02:38:06.393Z,99556.69
2022-08-20T02:40:36.212Z,99557.93
2022-08-20T02:43:04.522Z,99558.98
2022-08-20T02:45:43.918Z,99552.66
2022-08-20T02:48:18.768Z,99544.41
2022-08-20T02:50:51.648Z,99539.75
2022-08-20T02:53:19.967Z,99535.48
2022-08-20T02:55:48.528Z,99533.58
2022-08-20T02:58:17.713Z,99523.58
2022-08-20T03:00:45.897Z,99515.30
2022-08-20T03:03:15.330Z,99505.15
2022-08-20T03:05:44.973Z,99497.41
2022-08-20T03:08:14.082Z,99496.68
2022-08-20T03:10:43.008Z,99500.02
2022-08-20T03:13:12.654Z,99496.31
2022-08-20T03:15:42.471Z,99495.15
2022-08-20T03:18:10.973Z,99498.09
2022-08-20T03:20:39.242Z,99496.78
2022-08-20T03:23:08.213Z,99498.29
2022-08-20T03:25:36.861Z,99503.13
2022-08-20T03:28:05.157Z,99502.63
2022-08-20T03:30:33.098Z,99506.96
2022-08-20T03:33:01.293Z,99507.05
2022-08-20T03:35:30.428Z,99497.42
2022-08-20T03:37:58.718Z,99493.21
2022-08-20T03:40:28.402Z,99477.94
2022-08-20T03:42:56.708Z,99473.77
2022-08-20T03:45:25.644Z,99469.98
2022-08-20T03:47:55.208Z,99470.69
2022-08-20T03:50:24.588Z,99474.04
2022-08-20T03:52:53.581Z,99480.84
2022-08-20T03:55:22.338Z,99491.09
2022-08-20T03:57:55.623Z,99505.70
2022-08-20T04:00:44.004Z,99510.00
2022-08-20T04:03:12.031Z,99505.98
2022-08-20T04:05:41.208Z,99497.38
2022-08-20T04:08:13.608Z,99481.52
2022-08-20T04:10:42.206Z,99472.27
2022-08-20T04:13:10.251Z,99464.88
2022-08-20T04:15:38.558Z,99464.37
2022-08-20T04:18:07.709Z,99465.97
2022-08-20T04:20:37.597Z,99469.61
2022-08-20T04:23:05.791Z,99480.23
2022-08-20T04:25:35.972Z,99486.80
2022-08-20T04:28:06.265Z,99488.73
2022-08-20T04:30:34.497Z,99485.94
2022-08-20T04:33:02.285Z,99488.95
2022-08-20T04:35:30.789Z,99493.39
2022-08-20T04:38:00.560Z,99495.42
2022-08-20T04:40:47.890Z,99497.32
2022-08-20T04:43:16.209Z,99498.64
2022-08-20T04:45:45.156Z,99499.98
2022-08-20T04:48:15.336Z,99497.77
2022-08-20T04:50:44.766Z,99494.84
2022-08-20T04:53:13.681Z,99491.12
2022-08-20T04:55:43.056Z,99486.97
2022-08-20T04:58:14.843Z,99487.50
2022-08-20T05:00:45.572Z,99483.61
2022-08-20T05:03:14.124Z,99482.25
2022-08-20T05:05:42.339Z,99483.36
2022-08-20T05:08:16.699Z,99481.69
2022-08-20T05:10:48.827Z,99481.94
2022-08-20T05:13:17.831Z,99483.89
2022-08-20T05:15:48.963Z,99484.59
2022-08-20T05:18:21.585Z,99489.17
2022-08-20T05:20:49.870Z,99495.83
2022-08-20T05:23:18.925Z,99496.45
2022-08-20T05:25:49.602Z,99503.30
2022-08-20T05:28:19.504Z,99495.67
2022-08-20T05:30:48.433Z,99501.31
2022-08-20T05:33:20.189Z,99502.32
2022-08-20T05:35:49.747Z,99505.78
2022-08-20T05:38:19.500Z,99507.78
2022-08-20T05:40:48.394Z,99510.84
2022-08-20T05:43:17.901Z,99515.20
2022-08-20T05:45:46.368Z,99520.06
2022-08-20T05:48:15.983Z,99521.47
2022-08-20T05:50:46.324Z,99521.76
2022-08-20T05:53:15.308Z,99526.67
2022-08-20T05:55:44.405Z,99527.80
2022-08-20T05:58:20.891Z,99528.37
2022-08-20T06:00:49.545Z,99536.14
2022-08-20T06:03:36.307Z,99540.68
2022-08-20T06:06:06.098Z,99545.44
2022-08-20T06:08:46.914Z,99546.73
2022-08-20T06:11:15.228Z,99548.27
2022-08-20T06:13:43.062Z,99553.94
2022-08-20T06:16:11.221Z,99560.28
2022-08-20T06:18:39.958Z,99566.32
2022-08-20T06:21:08.253Z,99571.33
2022-08-20T06:23:50.357Z,99579.23
2022-08-20T06:26:29.898Z,99582.17
2022-08-20T06:28:59.293Z,99589.54
2022-08-20T06:31:27.870Z,99587.25
2022-08-20T06:33:55.930Z,99592.48
2022-08-20T06:36:25.357Z,99594.08
2022-08-20T06:38:55.045Z,99593.09
2022-08-20T06:41:22.872Z,99594.36
2022-08-20T06:44:05.192Z,99597.23
2022-08-20T06:46:33.815Z,99599.64
2022-08-20T06:49:01.838Z,99595.54
2022-08-20T06:51:30.157Z,99596.64
2022-08-20T06:53:58.716Z,99603.15
2022-08-20T06:56:26.485Z,99609.21
2022-08-20T06:58:54.407Z,99606.25
2022-08-20T07:01:22.182Z,99603.73
2022-08-20T07:03:54.343Z,99598.58
2022-08-20T07:06:26.065Z,99598.73
2022-08-20T07:08:55.403Z,99593.77
2022-08-20T07:11:27.671Z,99595.71
2022-08-20T07:13:57.167Z,99595.34
2022-08-20T07:16:25.259Z,99597.45
2022-08-20T07:18:53.534Z,99596.75
2022-08-20T07:21:21.925Z,99598.61
2022-08-20T07:23:50.186Z,99599.99
2022-08-20T07:26:18.677Z,99600.43
2022-08-20T07:28:46.595Z,99596.80
2022-08-20T07:31:34.866Z,99592.66
2022-08-20T07:34:03.456Z,99593.00
2022-08-20T07:36:32.353Z,99593.30
2022-08-20T07:39:05.896Z,99596.75
2022-08-20T07:41:34.709Z,99588.81
2022-08-20T07:44:02.753Z,99584.66
2022-08-20T07:46:31.895Z,99576.50
2022-08-20T07:48:59.893Z,99578.73
2022-08-20T07:51:28.684Z,99580.30
2022-08-20T07:53:58.410Z,99580.38
2022-08-20T07:56:27.938Z,99579.50
2022-08-20T07:59:00.780Z,99576.36
2022-08-20T08:01:31.005Z,99577.88
2022-08-20T08:04:00.314Z,99576.06
2022-08-20T08:06:31.725Z,99574.67
2022-08-20T08:09:03.881Z,99571.91
2022-08-20T08:11:33.470Z,99577.82
2022-08-20T08:14:02.179Z,99576.66
2022-08-20T08:16:32.774Z,99575.63
2022-08-20T08:19:02.253Z,99575.77
2022-08-20T08:21:31.113Z,99578.40
2022-08-20T08:23:59.178Z,99580.33
2022-08-20T08:26:29.085Z,99577.63
2022-08-20T08:28:58.629Z,99577.98
2022-08-20T08:31:27.117Z,99578.18
2022-08-20T08:33:55.932Z,99574.96
2022-08-20T08:36:26.456Z,99574.77
2022-08-20T08:38:56.200Z,99577.95
2022-08-20T08:41:29.817Z,99575.36
2022-08-20T08:44:03.209Z,99573.55
2022-08-20T08:46:32.673Z,99569.42
2022-08-20T08:49:02.208Z,99566.83
2022-08-20T08:51:37.407Z,99568.81
2022-08-20T08:54:07.156Z,99569.45
2022-08-20T08:56:35.936Z,99574.73
2022-08-20T08:59:06.579Z,99569.71
2022-08-20T09:01:55.392Z,99573.34
2022-08-20T09:04:32.683Z,99576.05
2022-08-20T09:07:02.984Z,99571.26
2022-08-20T09:09:32.967Z,99567.13
2022-08-20T09:12:05.899Z,99573.16
2022-08-20T09:14:34.404Z,99574.25
2022-08-20T09:17:02.362Z,99579.85
2022-08-20T09:19:30.712Z,99582.34
2022-08-20T09:21:59.133Z,99587.29
2022-08-20T09:24:27.648Z,99583.44
2022-08-20T09:26:55.563Z,99582.95
2022-08-20T09:29:23.849Z,99589.16
2022-08-20T09:31:52.051Z,99596.23
2022-08-20T09:34:21.230Z,99602.53
2022-08-20T09:36:49.021Z,99604.33
2022-08-20T09:39:17.077Z,99610.96
2022-08-20T09:41:45.564Z,99617.61
2022-08-20T09:44:13.821Z,99619.16
2022-08-20T09:46:41.649Z,99625.77
2022-08-20T09:49:10.516Z,99628.84
2022-08-20T09:51:39.510Z,99629.39
2022-08-20T09:54:07.417Z,99626.17
2022-08-20T09:56:36.388Z,99627.75
2022-08-20T09:59:04.446Z,99633.56
2022-08-20T10:01:33.388Z,99631.03
2022-08-20T10:04:01.530Z,99638.58
2022-08-20T10:06:29.405Z,99639.09
2022-08-20T10:08:57.235Z,99637.17
2022-08-20T10:11:25.206Z,99638.04
2022-08-20T10:13:53.471Z,99637.77
2022-08-20T10:16:21.871Z,99632.45
2022-08-20T10:18:50.542Z,99630.36
2022-08-20T10:21:18.411Z,99626.73
2022-08-20T10:23:47.388Z,99632.66
2022-08-20T10:26:15.293Z,99638.29
2022-08-20T10:28:43.311Z,99640.48
2022-08-20T10:31:12.533Z,99634.45
2022-08-20T10:33:40.993Z,99631.78
2022-08-20T10:36:10.563Z,99629.36
2022-08-20T10:38:38.996Z,99626.29
2022-08-20T10:41:06.799Z,99623.59
2022-08-20T10:43:35.152Z,99622.58
2022-08-20T10:46:03.322Z,99620.50
2022-08-20T10:48:31.907Z,99614.71
2022-08-20T10:50:59.817Z,99616.96
2022-08-20T10:53:27.843Z,99622.72
2022-08-20T10:55:55.915Z,99621.61
2022-08-20T10:58:24.472Z,99630.37
2022-08-20T11:00:53.106Z,99641.76
2022-08-20T11:03:21.199Z,99642.38
2022-08-20T11:05:49.672Z,99641.14
2022-08-20T11:08:22.630Z,99648.05
2022-08-20T11:11:02.948Z,99652.66
2022-08-20T11:13:30.732Z,99658.85
2022-08-20T11:15:58.464Z,99660.41
2022-08-20T11:18:26.899Z,99662.27
2022-08-20T11:20:55.754Z,99674.14
2022-08-20T11:23:23.876Z,99678.31
2022-08-20T11:25:52.208Z,99675.02
2022-08-20T11:28:31.774Z,99672.71
2022-08-20T11:31:01.961Z,99673.07
2022-08-20T11:33:29.874Z,99674.16
2022-08-20T11:35:57.943Z,99678.61
2022-08-20T11:38:27.333Z,99677.70
2022-08-20T11:40:55.328Z,99678.22
2022-08-20T11:43:23.447Z,99675.00
2022-08-20T11:45:54.527Z,99678.00
2022-08-20T11:48:22.832Z,99688.27
2022-08-20T11:50:51.995Z,99688.96
2022-08-20T11:53:20.054Z,99695.31
2022-08-20T11:55:49.725Z,99699.00
2022-08-20T11:58:18.160Z,99699.25
2022-08-20T12:00:46.128Z,99712.60
2022-08-20T12:03:14.564Z,99706.51
2022-08-20T12:05:43.893Z,99710.37
2022-08-20T12:08:26.473Z,99715.56
2022-08-20T12:11:02.628Z,99722.10
2022-08-20T12:13:48.326Z,99726.61
2022-08-20T12:16:18.377Z,99737.20
2022-08-20T12:18:47.325Z,99734.45
2022-08-20T12:21:16.107Z,99736.50
2022-08-20T12:23:44.128Z,99743.15
2022-08-20T12:26:12.575Z,99749.04
2022-08-20T12:28:41.164Z,99763.97
2022-08-20T12:31:09.190Z,99768.94
2022-08-20T12:33:37.489Z,99772.48
2022-08-20T12:36:06.260Z,99773.48
2022-08-20T12:38:34.898Z,99774.32
2022-08-20T12:41:03.053Z,99773.73
2022-08-20T12:43:31.948Z,99771.66
2022-08-20T12:45:59.857Z,99767.84
2022-08-20T12:48:28.120Z,99769.71
2022-08-20T12:50:56.217Z,99772.75
2022-08-20T12:53:25.008Z,99775.15
2022-08-20T12:55:53.061Z,99776.14
2022-08-20T12:58:21.297Z,99782.82
2022-08-20T13:00:50.659Z,99784.05
2022-08-20T13:03:20.528Z,99792.13
2022-08-20T13:05:49.464Z,99786.16
2022-08-20T13:08:19.742Z,99788.98
2022-08-20T13:10:47.838Z,99790.05
2022-08-20T13:13:20.075Z,99791.64
2022-08-20T13:15:51.196Z,99787.98
2022-08-20T13:18:19.934Z,99787.92
2022-08-20T13:20:49.202Z,99778.55
2022-08-20T13:23:17.436Z,99780.04
2022-08-20T13:25:45.419Z,99778.08
2022-08-20T13:28:13.250Z,99765.98
2022-08-20T13:30:42.131Z,99765.79
2022-08-20T13:33:10.738Z,99768.67
2022-08-20T13:35:39.584Z,99773.91
2022-08-20T13:38:07.481Z,99773.11
2022-08-20T13:40:35.728Z,99766.38
2022-08-20T13:43:07.040Z,99759.50
2022-08-20T13:45:38.891Z,99743.15
2022-08-20T13:48:09.963Z,99728.12
2022-08-20T13:50:47.008Z,99723.07
2022-08-20T13:53:15.986Z,99719.91
2022-08-20T13:55:44.215Z,99711.63
2022-08-20T13:58:11.939Z,99709.04
2022-08-20T14:00:40.615Z,99710.63
2022-08-20T14:03:08.953Z,99714.33
2022-08-20T14:05:38.180Z,99713.73
2022-08-20T14:08:08.424Z,99706.20
2022-08-20T14:10:37.099Z,99705.10
2022-08-20T14:13:07.029Z,99704.48
2022-08-20T14:15:36.982Z,99703.69
2022-08-20T14:18:05.338Z,99702.94
2022-08-20T14:20:34.241Z,99701.28
2022-08-20T14:23:02.772Z,99705.35
2022-08-20T14:25:31.859Z,99706.48
2022-08-20T14:28:09.539Z,99709.14
2022-08-20T14:30:38.119Z,99710.66
2022-08-20T14:33:06.447Z,99710.83
2022-08-20T14:35:34.936Z,99712.35
2022-08-20T14:38:05.331Z,99714.10
2022-08-20T14:40:34.153Z,99721.81
2022-08-20T14:43:03.378Z,99731.09
2022-08-20T14:45:31.577Z,99743.93
2022-08-20T14:47:59.893Z,99747.98
2022-08-20T14:50:32.567Z,99752.01
2022-08-20T14:53:01.258Z,99750.44
2022-08-20T14:55:31.028Z,99741.73
2022-08-20T14:57:59.552Z,99737.11
2022-08-20T15:00:29.609Z,99742.99
2022-08-20T15:02:57.982Z,99747.48
2022-08-20T15:05:27.605Z,99738.77
2022-08-20T15:07:58.607Z,99729.53
2022-08-20T15:10:31.796Z,99739.12
2022-08-20T15:13:00.948Z,99754.57
2022-08-20T15:15:29.620Z,99764.88
2022-08-20T15:18:00.417Z,99763.08
2022-08-20T15:20:30.095Z,99757.95
2022-08-20T15:22:58.330Z,99751.59
2022-08-20T15:25:27.463Z,99754.81
2022-08-20T15:28:06.003Z,99760.50
2022-08-20T15:30:34.345Z,99769.35
2022-08-20T15:33:02.426Z,99772.08
2022-08-20T15:35:31.066Z,99776.68
2022-08-20T15:37:59.420Z,99779.45
2022-08-20T15:40:30.044Z,99783.42
2022-08-20T15:42:59.353Z,99777.58
2022-08-20T15:45:27.831Z,99763.59
2022-08-20T15:48:15.849Z,99752.86
2022-08-20T15:51:03.091Z,99743.27
2022-08-20T15:53:39.563Z,99741.04
2022-08-20T15:56:28.197Z,99747.52
2022-08-20T15:59:02.017Z,99743.27
2022-08-20T16:01:44.090Z,99724.66
2022-08-20T16:04:30.694Z,99714.00
2022-08-20T16:07:01.853Z,99704.13
2022-08-20T16:09:30.139Z,99697.89
2022-08-20T16:12:08.659Z,99689.50
2022-08-20T16:14:42.983Z,99684.04
2022-08-20T16:17:11.131Z,99680.87
2022-08-20T16:19:45.517Z,99679.33
2022-08-20T16:22:15.041Z,99673.39
2022-08-20T16:24:43.470Z,99669.05
2022-08-20T16:27:21.222Z,99662.77
2022-08-20T16:29:49.511Z,99653.79
2022-08-20T16:32:20.926Z,99647.91
2022-08-20T16:35:10.451Z,99649.80
2022-08-20T16:37:45.543Z,99641.06
2022-08-20T16:40:26.574Z,99640.35
2022-08-20T16:42:57.707Z,99635.48
2022-08-20T16:45:30.878Z,99631.17
2022-08-20T16:48:01.175Z,99627.98
2022-08-20T16:50:33.990Z,99613.67
2022-08-20T16:53:02.080Z,99605.10
2022-08-20T16:55:30.254Z,99595.38
2022-08-20T16:57:58.599Z,99586.83
2022-08-20T17:00:35.745Z,99586.46
2022-08-20T17:03:31.478Z,99592.35
2022-08-20T17:06:01.916Z,99606.91
2022-08-20T17:08:32.185Z,99625.83
2022-08-20T17:11:00.329Z,99631.32
2022-08-20T17:13:33.623Z,99627.52
2022-08-20T17:16:01.489Z,99620.77
2022-08-20T17:18:31.828Z,99623.55
2022-08-20T17:21:02.059Z,99649.93
2022-08-20T17:23:31.484Z,99676.05
2022-08-20T17:26:01.305Z,99700.59
2022-08-20T17:28:34.550Z,99719.60
2022-08-20T17:31:03.633Z,99725.48
2022-08-20T17:33:33.899Z,99729.36
2022-08-20T17:36:08.553Z,99724.17
2022-08-20T17:38:38.906Z,99719.41
2022-08-20T17:41:12.779Z,99729.46
2022-08-20T17:43:43.978Z,99731.33
2022-08-20T17:46:16.517Z,99711.24
2022-08-20T17:48:45.925Z,99691.18
2022-08-20T17:51:18.479Z,99691.30
2022-08-20T17:53:50.083Z,99706.75
2022-08-20T17:56:24.125Z,99707.27
2022-08-20T17:59:03.407Z,99696.66
2022-08-20T18:01:35.005Z,99691.79
2022-08-20T18:04:03.601Z,99688.98
2022-08-20T18:06:45.029Z,99682.61
2022-08-20T18:09:13.000Z,99664.77
2022-08-20T18:12:04.204Z,99651.37
2022-08-20T18:14:52.016Z,99631.89
2022-08-20T18:17:41.951Z,99620.96
2022-08-20T18:20:24.233Z,99643.89
2022-08-20T18:22:58.326Z,99673.09
2022-08-20T18:25:37.560Z,99695.04
2022-08-20T18:28:23.357Z,99711.11
2022-08-20T18:31:01.835Z,99732.74
2022-08-20T18:33:35.421Z,99749.43
2022-08-20T18:36:05.985Z,99752.18
2022-08-20T18:38:37.233Z,99756.39
2022-08-20T18:41:24.202Z,99758.63
2022-08-20T18:44:02.660Z,99753.50
2022-08-20T18:46:31.061Z,99746.63
2022-08-20T18:49:00.560Z,99751.35
2022-08-20T18:51:36.359Z,99754.98
2022-08-20T18:54:04.745Z,99757.14
2022-08-20T18:56:35.405Z,99756.24
2022-08-20T18:59:03.885Z,99747.06
2022-08-20T19:01:34.753Z,99739.08
2022-08-20T19:04:13.539Z,99734.69
2022-08-20T19:06:45.093Z,99735.59
2022-08-20T19:09:32.107Z,99732.13
2022-08-20T19:12:11.831Z,99726.21
2022-08-20T19:14:54.633Z,99722.15
2022-08-20T19:17:37.564Z,99715.56
2022-08-20T19:20:09.085Z,99710.20
2022-08-20T19:22:39.139Z,99713.58
2022-08-20T19:25:07.758Z,99711.02
2022-08-20T19:27:35.884Z,99706.10
2022-08-20T19:30:04.049Z,99696.67
2022-08-20T19:32:33.272Z,99690.15
2022-08-20T19:35:04.338Z,99686.50
2022-08-20T19:37:44.515Z,99688.30
2022-08-20T19:40:24.874Z,99691.42
2022-08-20T19:42:59.120Z,99691.55
2022-08-20T19:45:30.137Z,99686.72
2022-08-20T19:48:13.603Z,99676.84
2022-08-20T19:50:54.792Z,99668.44
2022-08-20T19:53:30.603Z,99664.09
2022-08-20T19:55:59.479Z,99669.77
2022-08-20T19:58:29.213Z,99674.60
2022-08-20T20:00:58.624Z,99674.67
2022-08-20T20:03:29.026Z,99675.27
2022-08-20T20:06:02.436Z,99674.12
2022-08-20T20:08:37.696Z,99676.65
2022-08-20T20:11:06.055Z,99680.63
2022-08-20T20:13:39.556Z,99679.27
2022-08-20T20:16:08.533Z,99683.70
2022-08-20T20:18:37.912Z,99685.73
2022-08-20T20:21:11.251Z,99685.80
2022-08-20T20:23:46.802Z,99682.71
2022-08-20T20:26:17.158Z,99679.32
2022-08-20T20:28:47.529Z,99682.65
2022-08-20T20:31:28.556Z,99682.04
2022-08-20T20:33:58.800Z,99684.60
2022-08-20T20:36:31.985Z,99684.34
2022-08-20T20:39:01.209Z,99682.98
2022-08-20T20:41:29.556Z,99679.54
2022-08-20T20:43:59.419Z,99678.45
2022-08-20T20:46:29.256Z,99674.27
2022-08-20T20:49:09.766Z,99674.77
2022-08-20T20:51:40.068Z,99677.02
2022-08-20T20:54:22.806Z,99677.54
2022-08-20T20:57:07.273Z,99679.52
2022-08-20T20:59:36.113Z,99683.02
2022-08-20T21:02:04.744Z,99686.26
2022-08-20T21:04:33.277Z,99684.75
2022-08-20T21:07:07.519Z,99685.84
2022-08-20T21:09:36.491Z,99690.18
2022-08-20T21:12:05.472Z,99689.47
2022-08-20T21:14:33.889Z,99691.84
2022-08-20T21:17:02.927Z,99693.95
2022-08-20T21:19:31.829Z,99694.27
2022-08-20T21:22:00.967Z,99692.02
2022-08-20T21:24:29.306Z,99691.83
2022-08-20T21:26:59.044Z,99694.07
2022-08-20T21:29:32.291Z,99701.51
2022-08-20T21:32:01.087Z,99706.84
2022-08-20T21:34:28.879Z,99713.94
2022-08-20T21:36:56.851Z,99724.36
2022-08-20T21:39:27.661Z,99733.04
2022-08-20T21:41:57.094Z,99735.05
2022-08-20T21:44:27.380Z,99735.23
2022-08-20T21:46:59.016Z,99734.88
2022-08-20T21:49:28.640Z,99736.25
2022-08-20T21:51:57.024Z,99737.63
2022-08-20T21:54:25.963Z,99747.61
2022-08-20T21:56:58.300Z,99759.00
2022-08-20T21:59:26.811Z,99764.33
2022-08-20T22:01:55.314Z,99763.21
2022-08-20T22:04:23.765Z,99761.59
2022-08-20T22:06:51.612Z,99760.01
2022-08-20T22:09:19.716Z,99754.45
2022-08-20T22:11:53.883Z,99746.34
2022-08-20T22:14:23.554Z,99746.77
2022-08-20T22:16:51.780Z,99743.29
2022-08-20T22:19:19.919Z,99740.51
2022-08-20T22:21:49.587Z,99740.73
2022-08-20T22:24:17.490Z,99745.23
2022-08-20T22:26:45.546Z,99750.70
2022-08-20T22:29:13.597Z,99756.00
2022-08-20T22:31:42.799Z,99760.58
2022-08-20T22:34:12.114Z,99766.25
2022-08-20T22:36:40.577Z,99768.91
2022-08-20T22:39:08.833Z,99770.06
2022-08-20T22:41:36.791Z,99770.70
2022-08-20T22:44:05.088Z,99772.71
2022-08-20T22:46:35.884Z,99767.83
2022-08-20T22:49:04.895Z,99761.25
2022-08-20T22:51:35.005Z,99761.27
2022-08-20T22:54:04.299Z,99757.76
2022-08-20T22:56:32.317Z,99754.02
2022-08-20T22:59:03.332Z,99754.96
2022-08-20T23:01:31.475Z,99757.70
2022-08-20T23:04:26.065Z,99753.65
2022-08-20T23:06:54.879Z,99746.56
2022-08-20T23:09:23.287Z,99742.40
2022-08-20T23:11:52.821Z,99740.59
2022-08-20T23:14:22.143Z,99744.34
2022-08-20T23:16:56.705Z,99749.62
2022-08-20T23:19:26.091Z,99748.10
2022-08-20T23:21:53.797Z,99743.69
2022-08-20T23:24:22.142Z,99742.44
2022-08-20T23:26:53.320Z,99745.92
2022-08-20T23:29:25.898Z,99748.72
2022-08-20T23:31:57.144Z,99740.52
2022-08-20T23:34:26.511Z,99734.91
2022-08-20T23:36:55.789Z,99724.89
2022-08-20T23:39:24.904Z,99715.00
2022-08-20T23:41:53.420Z,99709.98
2022-08-20T23:44:25.853Z,99716.20
2022-08-20T23:46:57.238Z,99722.03
2022-08-20T23:49:25.791Z,99729.64
2022-08-20T23:51:53.979Z,99738.44
2022-08-20T23:54:22.327Z,99742.52
2022-08-20T23:56:50.465Z,99748.76
2022-08-20T23:59:19.005Z,99747.44
